Time;durP1;ratioP1;P1;durP2;ratioP2;P2;SDS_P1;SDS_P2;PMS_P1;PMS_P2;Temp;Humidity;BMP_temperature;BMP_pressure;BME280_temperature;BME280_humidity;BME280_pressure;Samples;Min_cycle;Max_cycle;Signal;HPM_P1;HPM_P2
2021/06/17 00:00:51;;;;;;;31.65;25.73;;;;;;;21.20;66.61;100871.06;5063832;28;20114;-71
2021/06/17 00:03:16;;;;;;;33.13;26.13;;;;;;;21.27;66.05;100873.50;5066436;28;20032;-69
2021/06/17 00:05:42;;;;;;;34.95;26.63;;;;;;;21.33;65.81;100862.50;5062998;28;20028;-63
2021/06/17 00:08:08;;;;;;;33.78;26.73;;;;;;;21.27;66.25;100876.19;5065566;28;20045;-66
2021/06/17 00:10:37;;;;;;;34.03;26.88;;;;;;;21.26;65.97;100869.94;5063118;28;20039;-67
2021/06/17 00:13:06;;;;;;;34.47;26.65;;;;;;;21.30;65.74;100865.31;5064808;28;20154;-71
2021/06/17 00:15:33;;;;;;;34.10;28.10;;;;;;;21.16;66.15;100869.44;5063904;28;20028;-64
2021/06/17 00:17:58;;;;;;;33.85;28.40;;;;;;;21.06;66.93;100870.72;5064209;28;20029;-64
2021/06/17 00:20:24;;;;;;;34.30;28.02;;;;;;;21.06;67.89;100873.41;5065472;28;20036;-63
2021/06/17 00:22:50;;;;;;;34.60;29.23;;;;;;;20.96;67.76;100878.25;5062952;28;20025;-63
2021/06/17 00:25:17;;;;;;;36.00;28.63;;;;;;;20.94;68.07;100873.88;5066166;28;20111;-64
2021/06/17 00:27:42;;;;;;;36.75;28.13;;;;;;;20.95;67.87;100871.13;5058638;28;20024;-63
2021/06/17 00:30:10;;;;;;;34.80;27.52;;;;;;;20.89;67.58;100866.84;5065168;28;20058;-64
2021/06/17 00:32:35;;;;;;;34.15;27.98;;;;;;;20.82;67.81;100864.47;5063292;28;20033;-67
2021/06/17 00:35:01;;;;;;;34.38;28.83;;;;;;;20.74;67.90;100851.34;5064363;28;20032;-68
2021/06/17 00:37:26;;;;;;;35.55;28.15;;;;;;;20.59;68.02;100846.50;5064344;28;20379;-66
2021/06/17 00:39:52;;;;;;;33.63;27.40;;;;;;;20.58;68.15;100842.09;5063025;28;20032;-69
2021/06/17 00:42:17;;;;;;;36.55;27.38;;;;;;;20.62;68.05;100841.03;5065355;28;20024;-68
2021/06/17 00:44:42;;;;;;;36.08;29.08;;;;;;;20.61;68.54;100845.53;5062027;28;20040;-68
2021/06/17 00:47:08;;;;;;;35.50;28.42;;;;;;;20.59;69.39;100835.75;5065103;28;20370;-69
2021/06/17 00:49:33;;;;;;;35.45;29.42;;;;;;;20.55;69.31;100838.56;5062954;28;20546;-68
2021/06/17 00:52:02;;;;;;;35.92;29.58;;;;;;;20.54;69.11;100834.13;5063478;28;20102;-68
2021/06/17 00:54:33;;;;;;;36.50;29.67;;;;;;;20.55;68.67;100835.03;5063995;28;20028;-68
2021/06/17 00:57:06;;;;;;;34.90;28.15;;;;;;;20.52;68.51;100836.00;5063464;28;20410;-68
2021/06/17 00:59:33;;;;;;;37.53;30.55;;;;;;;20.42;69.19;100844.47;5063433;28;20383;-68
2021/06/17 01:01:58;;;;;;;37.83;30.67;;;;;;;20.41;69.18;100843.56;5063210;28;20021;-67
2021/06/17 01:04:25;;;;;;;36.85;30.23;;;;;;;20.42;69.24;100845.34;5064275;28;20024;-67
2021/06/17 01:06:52;;;;;;;36.45;29.77;;;;;;;20.39;70.79;100840.09;5062283;28;20028;-68
2021/06/17 01:09:52;;;;;;;34.65;28.52;;;;;;;20.45;68.79;100844.34;5064914;28;20071;-65
2021/06/17 01:12:43;;;;;;;36.22;29.20;;;;;;;20.44;69.74;100843.44;5058646;28;20025;-68
2021/06/17 01:15:17;;;;;;;35.83;30.33;;;;;;;20.42;69.11;100833.72;5062086;28;20040;-67
2021/06/17 01:17:52;;;;;;;36.47;30.45;;;;;;;20.38;69.40;100835.63;5057812;28;20532;-67
2021/06/17 01:20:29;;;;;;;34.95;30.20;;;;;;;20.31;69.37;100840.34;5057876;28;20028;-66
2021/06/17 01:23:29;;;;;;;36.15;30.08;;;;;;;20.28;68.73;100836.91;5063750;28;20082;-67
2021/06/17 01:26:32;;;;;;;36.83;30.75;;;;;;;20.17;69.08;100846.22;5060076;28;20021;-67
2021/06/17 01:29:00;;;;;;;37.38;30.42;;;;;;;20.19;69.91;100849.72;5060393;28;20082;-68
2021/06/17 01:31:29;;;;;;;37.53;30.52;;;;;;;20.16;69.86;100847.13;5063823;28;20040;-64
2021/06/17 01:33:57;;;;;;;37.47;30.42;;;;;;;20.14;69.81;100849.00;5062646;28;20025;-64
2021/06/17 01:36:36;;;;;;;36.58;31.08;;;;;;;20.07;70.17;100843.94;5063757;28;20029;-64
2021/06/17 01:39:05;;;;;;;37.83;30.38;;;;;;;20.13;69.97;100852.63;5063345;28;20021;-63
2021/06/17 01:41:36;;;;;;;37.08;30.17;;;;;;;20.09;70.16;100848.28;5062571;28;20025;-64
2021/06/17 01:44:03;;;;;;;37.53;30.65;;;;;;;20.08;70.63;100845.66;5063170;28;20082;-64
2021/06/17 01:46:31;;;;;;;36.83;30.08;;;;;;;20.05;70.56;100841.28;5063164;28;20042;-64
2021/06/17 01:48:57;;;;;;;38.42;31.05;;;;;;;19.87;71.65;100833.88;5062432;28;20419;-63
2021/06/17 01:51:26;;;;;;;36.63;30.58;;;;;;;19.78;72.39;100838.63;5063712;28;20486;-64
2021/06/17 01:53:52;;;;;;;36.03;30.77;;;;;;;19.71;72.49;100839.72;5061231;28;20028;-64
2021/06/17 01:56:20;;;;;;;37.90;31.33;;;;;;;19.73;71.93;100839.69;5064441;28;20020;-64
2021/06/17 01:58:47;;;;;;;37.38;30.90;;;;;;;19.65;72.36;100837.25;5057589;28;20395;-64
2021/06/17 02:01:14;;;;;;;37.63;30.48;;;;;;;19.59;73.38;100835.66;5064779;28;20415;-64
2021/06/17 02:03:42;;;;;;;36.28;29.60;;;;;;;19.61;72.96;100839.16;5061100;28;20024;-64
2021/06/17 02:06:08;;;;;;;38.78;30.15;;;;;;;19.62;72.76;100837.38;5063347;28;20032;-63
2021/06/17 02:08:34;;;;;;;37.38;30.75;;;;;;;19.63;72.78;100833.75;5061889;28;20132;-64
2021/06/17 02:10:59;;;;;;;37.45;31.15;;;;;;;19.64;72.37;100830.13;5062515;28;20025;-63
2021/06/17 02:13:25;;;;;;;38.83;31.73;;;;;;;19.64;72.17;100831.03;5063416;28;20035;-63
2021/06/17 02:15:53;;;;;;;35.78;29.50;;;;;;;19.66;72.17;100836.34;5061033;28;20396;-64
2021/06/17 02:18:25;;;;;;;36.90;32.00;;;;;;;19.64;71.84;100828.34;5064252;28;20446;-64
2021/06/17 02:20:52;;;;;;;37.22;30.75;;;;;;;19.71;71.48;100829.00;5060917;28;20021;-64
2021/06/17 02:23:19;;;;;;;38.55;30.45;;;;;;;19.65;71.72;100821.19;5064030;28;20052;-63
2021/06/17 02:25:47;;;;;;;36.05;30.15;;;;;;;19.51;72.16;100827.88;5060764;28;20035;-64
2021/06/17 02:28:19;;;;;;;36.90;29.58;;;;;;;19.43;72.52;100819.19;5063638;28;20548;-63
2021/06/17 02:30:45;;;;;;;37.53;29.52;;;;;;;19.40;72.85;100807.72;5056941;28;20060;-63
2021/06/17 02:33:13;;;;;;;37.45;30.73;;;;;;;19.28;73.21;100811.66;5063398;28;20050;-64
2021/06/17 02:35:43;;;;;;;35.47;29.17;;;;;;;19.31;72.81;100809.78;5064316;28;20033;-63
2021/06/17 02:38:09;;;;;;;36.83;30.30;;;;;;;19.25;73.32;100809.06;5067386;28;20075;-63
2021/06/17 02:40:41;;;;;;;36.72;30.55;;;;;;;19.25;73.47;100804.63;5065750;28;20054;-64
2021/06/17 02:43:10;;;;;;;37.67;31.85;;;;;;;19.28;73.26;100795.56;5067032;28;20055;-63
2021/06/17 02:45:36;;;;;;;39.33;32.17;;;;;;;19.32;73.33;100802.59;5065548;28;20028;-64
2021/06/17 02:48:02;;;;;;;38.75;31.05;;;;;;;19.31;73.47;100792.81;5066269;28;20021;-63
2021/06/17 02:50:27;;;;;;;37.55;31.30;;;;;;;19.30;73.58;100801.78;5066560;28;20025;-63
2021/06/17 02:52:53;;;;;;;39.83;31.13;;;;;;;19.33;73.08;100794.50;5065003;28;20361;-64
2021/06/17 02:55:19;;;;;;;40.58;32.60;;;;;;;19.25;73.01;100791.22;5067755;28;20016;-64
2021/06/17 02:58:21;;;;;;;39.42;32.58;;;;;;;19.25;71.89;100791.22;5060171;28;20071;-63
2021/06/17 03:00:53;;;;;;;39.65;35.33;;;;;;;19.21;72.32;100797.59;5064073;28;20032;-63
2021/06/17 03:03:42;;;;;;;38.42;32.30;;;;;;;19.26;71.77;100794.75;5059142;28;20021;-63
2021/06/17 03:06:11;;;;;;;39.42;33.00;;;;;;;19.14;73.77;100798.72;5064582;28;20029;-63
2021/06/17 03:08:57;;;;;;;40.75;33.22;;;;;;;19.20;71.96;100794.97;5066025;28;20049;-64
2021/06/17 03:11:26;;;;;;;40.03;32.90;;;;;;;19.10;73.88;100795.25;5061786;28;20376;-63
2021/06/17 03:13:56;;;;;;;41.58;34.45;;;;;;;19.12;73.47;100795.19;5066910;28;20032;-63
2021/06/17 03:16:29;;;;;;;38.47;33.58;;;;;;;19.10;73.40;100791.69;5064082;28;20029;-63
2021/06/17 03:19:00;;;;;;;41.40;33.58;;;;;;;19.08;73.48;100789.06;5066586;28;20372;-63
2021/06/17 03:21:32;;;;;;;41.45;33.67;;;;;;;19.06;73.15;100790.94;5064589;28;20040;-63
2021/06/17 03:23:59;;;;;;;40.70;34.42;;;;;;;19.05;73.68;100802.56;5065965;28;20024;-63
2021/06/17 03:26:26;;;;;;;40.38;33.47;;;;;;;19.12;73.31;100806.81;5064355;28;20056;-63
2021/06/17 03:28:54;;;;;;;40.83;33.45;;;;;;;19.16;72.95;100799.53;5066495;28;20490;-63
2021/06/17 03:31:20;;;;;;;39.90;34.50;;;;;;;19.21;72.94;100792.25;5063665;28;20079;-63
2021/06/17 03:33:49;;;;;;;39.13;33.63;;;;;;;19.17;73.10;100794.13;5066998;28;20029;-63
2021/06/17 03:36:15;;;;;;;40.30;35.28;;;;;;;19.07;73.22;100790.00;5059452;28;20021;-63
2021/06/17 03:38:42;;;;;;;40.95;35.08;;;;;;;19.09;73.48;100789.94;5066464;28;20037;-63
2021/06/17 03:41:09;;;;;;;41.50;36.03;;;;;;;19.05;73.61;100786.50;5064173;28;20051;-64
2021/06/17 03:43:36;;;;;;;41.17;35.22;;;;;;;19.10;73.26;100784.53;5065380;28;20498;-65
2021/06/17 03:46:02;;;;;;;38.42;33.60;;;;;;;19.24;72.68;100788.59;5065199;28;20067;-65
2021/06/17 03:48:28;;;;;;;40.22;32.78;;;;;;;19.31;72.30;100792.81;5064368;28;20491;-66
2021/06/17 03:50:55;;;;;;;39.63;33.47;;;;;;;19.39;71.99;100798.78;5065949;28;20028;-66
2021/06/17 03:53:21;;;;;;;41.88;33.92;;;;;;;19.52;71.54;100794.75;5063322;28;20027;-66
2021/06/17 03:55:47;;;;;;;42.67;35.22;;;;;;;19.46;71.70;100789.63;5066911;28;20437;-66
2021/06/17 03:58:13;;;;;;;42.35;35.50;;;;;;;19.44;72.47;100795.94;5063241;28;20025;-66
2021/06/17 04:00:38;;;;;;;41.38;34.63;;;;;;;19.52;71.88;100791.22;5065642;28;20079;-66
2021/06/17 04:03:09;;;;;;;39.65;33.78;;;;;;;19.59;71.57;100790.09;5064231;28;20414;-66
2021/06/17 04:05:36;;;;;;;40.83;34.38;;;;;;;19.63;72.20;100790.84;5065214;28;20025;-66
2021/06/17 04:08:02;;;;;;;40.40;34.53;;;;;;;19.59;72.67;100789.22;5064604;28;20063;-66
2021/06/17 04:10:29;;;;;;;40.25;33.75;;;;;;;19.56;73.16;100802.72;5064271;28;20114;-68
2021/06/17 04:12:57;;;;;;;40.55;32.72;;;;;;;19.65;72.24;100795.22;5065322;28;20486;-67
2021/06/17 04:15:24;;;;;;;40.83;32.78;;;;;;;19.75;72.48;100795.78;5063318;28;20023;-65
2021/06/17 04:17:59;;;;;;;39.30;34.03;;;;;;;19.80;72.17;100799.22;5065107;28;20423;-66
2021/06/17 04:20:34;;;;;;;40.67;33.67;;;;;;;19.81;72.40;100795.59;5063243;28;20032;-66
2021/06/17 04:23:04;;;;;;;38.75;32.60;;;;;;;19.85;72.72;100804.44;5064326;28;20028;-64
2021/06/17 04:25:30;;;;;;;39.53;33.13;;;;;;;19.89;72.56;100797.16;5063785;28;20029;-64
2021/06/17 04:28:01;;;;;;;39.78;33.85;;;;;;;19.90;73.21;100802.47;5065129;28;20017;-63
2021/06/17 04:30:29;;;;;;;39.45;34.42;;;;;;;19.95;72.97;100796.91;5063162;28;20025;-64
2021/06/17 04:33:02;;;;;;;43.38;34.75;;;;;;;20.05;71.63;100803.72;5065089;28;20029;-64
2021/06/17 04:35:29;;;;;;;41.83;35.22;;;;;;;20.09;71.75;100794.63;5063354;28;20490;-64
2021/06/17 04:37:55;;;;;;;39.03;33.85;;;;;;;20.18;72.30;100802.38;5064993;28;20029;-64
2021/06/17 04:40:22;;;;;;;40.38;34.35;;;;;;;20.19;72.94;100795.19;5062264;28;20029;-63
2021/06/17 04:42:54;;;;;;;39.58;34.55;;;;;;;20.37;71.93;100804.34;5065887;28;20027;-64
2021/06/17 04:45:22;;;;;;;39.15;34.38;;;;;;;20.50;70.58;100818.19;5058758;28;20036;-64
2021/06/17 04:47:49;;;;;;;41.42;34.50;;;;;;;20.59;71.08;100812.50;5058240;28;20082;-64
2021/06/17 04:50:15;;;;;;;40.85;34.13;;;;;;;20.73;70.07;100806.63;5065200;28;20028;-64
2021/06/17 04:52:55;;;;;;;40.30;33.30;;;;;;;20.81;69.69;100804.50;5062944;28;20033;-63
2021/06/17 04:55:21;;;;;;;38.30;33.22;;;;;;;20.88;69.61;100799.75;5058717;28;20047;-63
2021/06/17 04:57:46;;;;;;;40.75;34.42;;;;;;;20.95;70.92;100795.91;5064681;28;20452;-64
2021/06/17 05:00:12;;;;;;;40.28;33.03;;;;;;;21.07;70.61;100794.53;5062528;28;20029;-63
2021/06/17 05:02:37;;;;;;;40.88;33.17;;;;;;;21.11;70.85;100800.66;5064119;28;20043;-64
2021/06/17 05:05:03;;;;;;;38.10;30.35;;;;;;;21.18;69.79;100802.19;5063119;28;20082;-64
2021/06/17 05:12:40;;;;;;;38.88;30.17;;;;;;;21.23;69.28;100801.06;5064585;28;20035;-68
2021/06/17 05:15:06;;;;;;;40.25;29.30;;;;;;;21.18;69.72;100800.34;5062670;28;20103;-69
2021/06/17 05:17:32;;;;;;;34.40;26.70;;;;;;;21.25;67.74;100806.38;5063169;28;20039;-69
2021/06/17 05:19:58;;;;;;;36.55;27.42;;;;;;;21.31;67.55;100810.63;5062530;28;20040;-69
2021/06/17 05:22:24;;;;;;;37.92;28.05;;;;;;;21.41;65.79;100806.59;5061782;28;20090;-69
2021/06/17 05:24:49;;;;;;;36.25;27.67;;;;;;;21.53;65.96;100811.50;5065087;28;20024;-65
2021/06/17 05:27:15;;;;;;;37.33;26.42;;;;;;;21.64;65.58;100805.69;5061460;28;20454;-65
2021/06/17 05:29:40;;;;;;;33.95;26.42;;;;;;;21.76;63.89;100807.84;5064125;28;20446;-64
2021/06/17 05:32:06;;;;;;;39.10;26.98;;;;;;;21.91;64.19;100814.34;5062595;28;20490;-68
2021/06/17 05:34:31;;;;;;;34.13;27.15;;;;;;;22.06;63.16;100811.94;5063287;28;20491;-69
2021/06/17 05:36:57;;;;;;;34.45;26.67;;;;;;;22.22;62.35;100813.03;5053502;28;20440;-66
2021/06/17 05:39:22;;;;;;;33.83;25.83;;;;;;;22.36;62.37;100809.72;5057853;28;20055;-64
2021/06/17 05:41:47;;;;;;;32.00;24.92;;;;;;;22.46;61.49;100815.56;5060110;28;20139;-67
2021/06/17 05:44:13;;;;;;;33.40;25.20;;;;;;;22.59;61.25;100830.22;5057459;28;20024;-67
2021/06/17 05:46:40;;;;;;;32.95;23.42;;;;;;;22.69;60.47;100829.78;5052985;28;20025;-65
2021/06/17 05:49:08;;;;;;;31.45;22.73;;;;;;;22.77;59.15;100824.91;5058214;28;20391;-66
2021/06/17 05:51:34;;;;;;;29.65;21.60;;;;;;;22.93;58.71;100828.63;5058852;28;20021;-65
2021/06/17 05:54:00;;;;;;;30.73;21.35;;;;;;;23.14;58.22;100834.00;5057870;28;20075;-66
2021/06/17 05:56:26;;;;;;;28.63;20.08;;;;;;;23.40;57.02;100829.13;5057257;28;20032;-67
2021/06/17 05:58:51;;;;;;;28.95;19.05;;;;;;;23.72;56.35;100826.63;5059342;28;20021;-66
2021/06/17 06:01:18;;;;;;;27.92;18.73;;;;;;;24.06;55.49;100822.22;5055114;28;20348;-65
2021/06/17 06:03:44;;;;;;;26.70;17.05;;;;;;;24.35;53.87;100824.25;5058499;28;20383;-66
2021/06/17 06:06:09;;;;;;;25.75;15.57;;;;;;;24.58;53.19;100819.44;5058272;28;20024;-66
2021/06/17 06:08:34;;;;;;;23.02;12.90;;;;;;;24.70;51.15;100824.19;5058606;28;20124;-66
2021/06/17 06:10:59;;;;;;;23.42;12.15;;;;;;;24.76;50.29;100830.22;5058003;28;20434;-66
2021/06/17 06:13:25;;;;;;;22.50;11.43;;;;;;;24.84;49.81;100826.16;5058732;28;20056;-66
2021/06/17 06:15:51;;;;;;;22.42;10.93;;;;;;;24.92;49.35;100827.53;5057855;28;20039;-66
2021/06/17 06:18:17;;;;;;;22.98;10.90;;;;;;;24.95;49.01;100833.63;5061113;28;20039;-66
2021/06/17 06:20:45;;;;;;;22.38;11.20;;;;;;;25.00;48.71;100836.97;5059543;28;20021;-65
2021/06/17 06:23:11;;;;;;;23.38;10.90;;;;;;;25.02;48.68;100829.63;5060948;28;20110;-65
2021/06/17 06:25:37;;;;;;;23.95;11.60;;;;;;;25.06;48.66;100841.13;5061964;28;20025;-66
2021/06/17 06:28:04;;;;;;;24.55;11.30;;;;;;;25.10;48.44;100840.00;5063825;28;20040;-65
2021/06/17 06:30:29;;;;;;;23.42;11.85;;;;;;;25.15;48.76;100834.31;5060821;28;20391;-65
2021/06/17 06:32:55;;;;;;;23.52;10.98;;;;;;;25.12;49.55;100839.91;5062030;28;20024;-67
2021/06/17 06:35:22;;;;;;;21.63;10.93;;;;;;;25.11;48.78;100841.75;5062407;28;20159;-65
2021/06/17 06:37:51;;;;;;;22.50;11.52;;;;;;;25.05;47.58;100850.22;5057068;28;20445;-65
2021/06/17 06:40:18;;;;;;;21.85;11.40;;;;;;;24.98;48.48;100867.75;5060143;28;20020;-65
2021/06/17 06:42:44;;;;;;;24.23;11.98;;;;;;;24.98;48.23;100867.75;5061969;28;20021;-68
2021/06/17 06:45:10;;;;;;;23.15;11.20;;;;;;;24.96;48.74;100872.34;5059911;28;20151;-67
2021/06/17 06:47:36;;;;;;;22.35;10.95;;;;;;;25.02;48.54;100878.28;5056622;28;20049;-66
2021/06/17 06:50:01;;;;;;;22.95;11.27;;;;;;;25.19;47.69;100869.25;5059262;28;20050;-66
2021/06/17 06:52:26;;;;;;;23.80;11.23;;;;;;;25.36;47.75;100873.72;5056954;28;20025;-67
2021/06/17 06:54:52;;;;;;;22.92;10.27;;;;;;;25.60;47.29;100867.84;5057263;28;20021;-66
2021/06/17 06:57:17;;;;;;;21.50;9.73;;;;;;;25.74;46.29;100885.97;5059340;28;20025;-66
2021/06/17 06:59:42;;;;;;;20.55;9.20;;;;;;;25.75;45.78;100882.31;5056124;28;20048;-67
2021/06/17 07:02:08;;;;;;;22.88;9.48;;;;;;;25.70;46.65;100888.00;5052084;28;20375;-65
2021/06/17 07:04:33;;;;;;;21.60;9.32;;;;;;;25.70;46.22;100896.13;5054547;28;20025;-69
2021/06/17 07:06:59;;;;;;;22.25;8.75;;;;;;;25.64;46.03;100873.94;5046173;28;20013;-64
2021/06/17 07:09:25;;;;;;;23.25;9.02;;;;;;;25.66;46.81;100889.16;5047222;28;20056;-64
2021/06/17 07:11:50;;;;;;;23.58;8.65;;;;;;;25.74;45.97;100875.16;5046287;28;20380;-64
2021/06/17 07:14:16;;;;;;;21.35;8.50;;;;;;;25.75;46.83;100885.03;5051326;28;20135;-64
2021/06/17 07:16:42;;;;;;;21.67;8.57;;;;;;;25.77;46.20;100890.34;5048757;28;20132;-64
2021/06/17 07:19:07;;;;;;;21.92;8.63;;;;;;;25.76;47.07;100886.75;5050221;28;20047;-63
2021/06/17 07:21:33;;;;;;;20.27;7.93;;;;;;;25.72;46.91;100888.78;5056269;28;20090;-64
2021/06/17 07:23:59;;;;;;;21.83;8.15;;;;;;;25.82;47.16;100877.41;5056185;28;20079;-64
2021/06/17 07:26:28;;;;;;;23.42;7.70;;;;;;;25.78;46.79;100898.38;5057598;28;20100;-64
2021/06/17 07:28:57;;;;;;;21.67;7.75;;;;;;;25.76;47.06;100892.16;5055469;28;20052;-64
2021/06/17 07:31:23;;;;;;;20.25;7.90;;;;;;;25.71;47.68;100899.69;5049898;28;20044;-65
2021/06/17 07:33:49;;;;;;;21.95;7.97;;;;;;;25.77;47.84;100907.44;5053061;28;20525;-64
2021/06/17 07:36:15;;;;;;;22.65;7.88;;;;;;;25.82;48.55;100909.88;5056497;28;20025;-64
2021/06/17 07:38:40;;;;;;;21.92;7.95;;;;;;;25.89;47.95;100900.44;5058843;28;20070;-64
2021/06/17 07:41:06;;;;;;;21.90;7.45;;;;;;;25.89;47.52;100897.72;5053664;28;20060;-64
2021/06/17 07:43:32;;;;;;;20.92;7.25;;;;;;;25.90;48.74;100913.03;5055477;28;20025;-64
2021/06/17 07:45:57;;;;;;;21.50;7.53;;;;;;;25.88;49.00;100909.53;5052502;28;20032;-63
2021/06/17 07:48:23;;;;;;;21.73;7.45;;;;;;;25.86;49.00;100896.09;5050310;28;20020;-64
2021/06/17 07:50:48;;;;;;;21.00;7.35;;;;;;;25.85;49.07;100896.19;5051515;28;20021;-64
2021/06/17 07:53:13;;;;;;;20.85;7.50;;;;;;;25.87;49.08;100886.13;5054076;28;20079;-63
2021/06/17 07:55:39;;;;;;;23.67;7.53;;;;;;;25.91;48.34;100883.16;5054576;28;20091;-64
2021/06/17 07:58:05;;;;;;;20.48;7.70;;;;;;;25.93;47.78;100878.53;5054529;28;20025;-65
2021/06/17 08:00:30;;;;;;;20.88;7.40;;;;;;;26.00;48.77;100865.50;5051956;28;20021;-64
2021/06/17 08:02:58;;;;;;;22.23;7.55;;;;;;;26.18;48.54;100870.78;5054507;28;20025;-64
2021/06/17 08:05:23;;;;;;;20.65;8.00;;;;;;;26.19;48.66;100862.56;5050587;28;20021;-64
2021/06/17 08:07:48;;;;;;;24.63;7.55;;;;;;;26.36;48.84;100856.09;5052922;28;20048;-64
2021/06/17 08:10:14;;;;;;;20.80;7.78;;;;;;;26.45;46.75;100860.94;5053173;28;20028;-64
2021/06/17 08:12:40;;;;;;;21.50;7.80;;;;;;;26.47;47.31;100857.28;5051504;28;20038;-64
2021/06/17 08:15:06;;;;;;;20.80;8.10;;;;;;;26.53;47.14;100856.88;5050890;28;20028;-63
2021/06/17 08:17:31;;;;;;;22.15;7.45;;;;;;;26.59;46.68;100853.78;5051473;28;20022;-63
2021/06/17 08:19:57;;;;;;;21.23;7.53;;;;;;;26.73;47.07;100858.38;5057663;28;20070;-63
2021/06/17 08:22:25;;;;;;;22.80;7.70;;;;;;;26.76;46.02;100848.19;5061288;28;20489;-64
2021/06/17 08:24:51;;;;;;;21.55;7.72;;;;;;;26.96;46.77;100846.94;5059063;28;20499;-63
2021/06/17 08:27:16;;;;;;;22.85;7.93;;;;;;;27.32;46.63;100839.22;5060809;28;20064;-63
2021/06/17 08:29:41;;;;;;;22.92;7.75;;;;;;;27.67;45.87;100827.88;5059117;28;20025;-64
2021/06/17 08:32:07;;;;;;;21.90;7.63;;;;;;;28.12;44.99;100832.94;5055221;28;20093;-64
2021/06/17 08:34:33;;;;;;;21.98;7.50;;;;;;;28.47;43.16;100827.75;5057878;28;20099;-63
2021/06/17 08:36:58;;;;;;;20.75;7.30;;;;;;;28.77;42.66;100826.53;5063172;28;20024;-63
2021/06/17 08:39:24;;;;;;;21.80;7.55;;;;;;;28.91;42.38;100816.50;5061993;28;20037;-64
2021/06/17 08:41:50;;;;;;;19.42;7.15;;;;;;;29.04;42.96;100815.50;5063533;28;20024;-69
2021/06/17 08:44:16;;;;;;;21.77;7.45;;;;;;;29.27;41.60;100812.97;5060763;28;20033;-68
2021/06/17 08:46:41;;;;;;;20.13;7.15;;;;;;;29.46;40.48;100815.16;5063398;28;20484;-65
2021/06/17 08:49:08;;;;;;;19.98;7.65;;;;;;;29.37;39.79;100816.72;5066015;28;20035;-67
2021/06/17 08:51:35;;;;;;;20.23;7.30;;;;;;;29.70;39.89;100811.53;5061131;28;20024;-69
2021/06/17 08:54:01;;;;;;;18.88;7.25;;;;;;;30.16;40.55;100801.66;5059179;28;20490;-71
2021/06/17 08:56:27;;;;;;;21.42;7.80;;;;;;;30.59;39.03;100793.66;5062264;28;20029;-67
2021/06/17 08:58:54;;;;;;;24.20;8.20;;;;;;;30.82;38.39;100796.38;5062942;28;20107;-66
2021/06/17 09:01:21;;;;;;;20.77;7.75;;;;;;;31.09;38.35;100789.63;5060914;28;20024;-67
2021/06/17 09:03:46;;;;;;;22.10;8.05;;;;;;;31.60;37.42;100783.53;5059478;28;20029;-67
2021/06/17 09:06:12;;;;;;;19.38;7.22;;;;;;;32.05;35.79;100790.59;5060279;28;20032;-67
2021/06/17 09:08:38;;;;;;;18.70;6.90;;;;;;;32.17;34.79;100807.84;5061140;28;20045;-67
2021/06/17 09:11:16;;;;;;;20.75;7.15;;;;;;;32.43;35.23;100818.31;5062179;28;20025;-67
2021/06/17 09:13:41;;;;;;;26.38;7.20;;;;;;;32.92;34.87;100800.25;5060455;28;20035;-66
2021/06/17 09:16:07;;;;;;;21.40;7.07;;;;;;;32.85;33.36;100807.28;5058160;28;20024;-67
2021/06/17 09:18:35;;;;;;;20.70;7.55;;;;;;;32.59;33.52;100805.03;5062383;28;20024;-68
2021/06/17 09:21:09;;;;;;;18.90;7.18;;;;;;;32.27;35.39;100803.28;5057094;28;20024;-66
2021/06/17 09:23:36;;;;;;;19.35;6.97;;;;;;;32.08;36.36;100797.66;5056592;28;20119;-66
2021/06/17 09:26:20;;;;;;;19.05;7.43;;;;;;;31.95;36.44;100800.59;5060937;28;20029;-66
2021/06/17 09:31:29;;;;;;;19.42;7.68;;;;;;;32.41;35.03;100814.88;5057492;28;20029;-66
2021/06/17 09:33:56;;;;;;;21.30;7.72;;;;;;;32.52;35.64;100816.63;5057176;28;20017;-68
2021/06/17 09:36:23;;;;;;;21.55;7.40;;;;;;;32.27;35.49;100819.69;5064485;28;20023;-67
2021/06/17 09:38:53;;;;;;;21.67;7.68;;;;;;;32.03;35.40;100822.66;5061604;28;20048;-67
2021/06/17 09:41:38;;;;;;;21.90;7.40;;;;;;;31.74;36.53;100834.25;5063756;28;20103;-67
2021/06/17 09:44:07;;;;;;;20.60;7.47;;;;;;;31.32;37.57;100828.66;5059235;28;20020;-66
2021/06/17 09:46:33;;;;;;;19.40;7.53;;;;;;;31.25;36.84;100830.16;5064150;28;20076;-67
2021/06/17 09:49:09;;;;;;;22.80;7.47;;;;;;;31.21;37.38;100840.50;5061388;28;20484;-66
2021/06/17 09:51:41;;;;;;;21.38;7.40;;;;;;;30.81;37.74;100838.28;5063836;28;20024;-67
2021/06/17 09:54:25;;;;;;;21.25;7.47;;;;;;;30.74;38.20;100842.50;5062184;28;20024;-66
2021/06/17 09:56:56;;;;;;;19.08;7.15;;;;;;;31.13;38.20;100844.84;5061128;28;20482;-66
2021/06/17 09:59:34;;;;;;;20.38;7.30;;;;;;;31.11;38.65;100856.75;5064072;28;20021;-67
2021/06/17 10:02:01;;;;;;;21.00;7.63;;;;;;;31.11;37.94;100858.63;5058013;28;20029;-67
2021/06/17 10:04:27;;;;;;;19.98;7.22;;;;;;;31.27;37.18;100853.63;5064566;28;20471;-67
2021/06/17 10:06:53;;;;;;;19.42;7.35;;;;;;;31.46;37.13;100854.81;5060752;28;20036;-67
2021/06/17 10:09:18;;;;;;;19.98;7.13;;;;;;;31.66;36.03;100852.28;5057139;28;20542;-66
2021/06/17 10:11:45;;;;;;;21.73;7.32;;;;;;;31.62;35.19;100868.09;5056965;28;20025;-67
2021/06/17 10:14:11;;;;;;;19.35;7.10;;;;;;;31.06;36.93;100874.50;5058782;28;20379;-68
2021/06/17 10:16:38;;;;;;;20.60;7.03;;;;;;;30.86;37.11;100878.81;5056508;28;20033;-63
2021/06/17 10:19:04;;;;;;;23.83;7.88;;;;;;;31.29;36.56;100867.13;5057613;28;20037;-63
2021/06/17 10:21:31;;;;;;;26.45;8.13;;;;;;;31.37;37.40;100871.94;5055483;28;20021;-64
2021/06/17 10:23:58;;;;;;;21.63;8.00;;;;;;;32.13;35.77;100864.63;5059537;28;20356;-63
2021/06/17 10:26:26;;;;;;;22.58;7.90;;;;;;;32.81;34.15;100886.06;5053588;28;20025;-62
2021/06/17 10:28:55;;;;;;;20.33;7.93;;;;;;;32.30;35.65;100878.69;5059039;28;20037;-63
2021/06/17 10:31:36;;;;;;;21.55;8.23;;;;;;;31.77;36.84;100871.38;5056988;28;20614;-64
2021/06/17 10:34:28;;;;;;;21.15;8.27;;;;;;;32.30;35.30;100881.41;5056762;28;20055;-64
2021/06/17 10:37:15;;;;;;;23.08;8.07;;;;;;;32.71;35.39;100887.00;5057547;28;20044;-65
2021/06/17 10:39:42;;;;;;;22.50;7.97;;;;;;;33.10;35.41;100899.00;5055327;28;20027;-64
2021/06/17 10:42:10;;;;;;;20.83;8.13;;;;;;;32.67;35.67;100887.28;5059008;28;20024;-63
2021/06/17 10:44:55;;;;;;;21.60;8.27;;;;;;;32.65;36.06;100897.47;5059191;28;20021;-62
2021/06/17 10:47:38;;;;;;;20.25;8.10;;;;;;;33.04;34.83;100894.06;5059514;28;20029;-64
2021/06/17 10:50:04;;;;;;;20.02;7.30;;;;;;;34.96;32.60;100893.53;5060682;28;20037;-63
2021/06/17 10:52:31;;;;;;;21.38;7.95;;;;;;;36.59;29.99;100900.00;5062118;28;20437;-63
2021/06/17 10:55:03;;;;;;;19.85;7.35;;;;;;;37.99;27.45;100895.00;5060933;28;20534;-65
2021/06/17 10:57:44;;;;;;;18.83;6.90;;;;;;;37.26;26.87;100899.34;5064308;28;20099;-62
2021/06/17 11:00:25;;;;;;;21.58;7.20;;;;;;;36.99;27.02;100893.03;5058214;28;20494;-62
2021/06/17 11:03:06;;;;;;;21.97;6.90;;;;;;;37.35;28.02;100889.19;5064208;28;20029;-63
2021/06/17 11:05:31;;;;;;;19.15;6.50;;;;;;;37.07;25.72;100881.16;5057158;28;20123;-62
2021/06/17 11:08:26;;;;;;;19.40;6.60;;;;;;;37.55;27.13;100892.53;5066039;28;20087;-63
2021/06/17 11:11:05;;;;;;;21.17;6.82;;;;;;;37.41;25.70;100896.78;5058155;28;20121;-64
2021/06/17 11:13:34;;;;;;;19.15;6.10;;;;;;;36.11;26.80;100889.28;5058476;28;20067;-64
2021/06/17 11:16:05;;;;;;;18.55;5.28;;;;;;;36.77;26.42;100888.94;5062967;28;20029;-64
2021/06/17 11:21:23;;;;;;;18.23;5.72;;;;;;;37.17;25.55;100904.78;5059538;28;20061;-64
2021/06/17 11:24:00;;;;;;;24.93;5.20;;;;;;;36.46;25.41;100905.91;5060699;28;20115;-66
2021/06/17 11:26:41;;;;;;;17.25;5.30;;;;;;;35.75;26.67;100899.41;5051740;28;20107;-65
2021/06/17 11:29:09;;;;;;;16.80;5.07;;;;;;;34.79;26.97;100886.97;5055636;28;20396;-65